sensor_id;sensor_type;location;lat;lon;timestamp;P1;durP1;ratioP1;P2;durP2;ratioP2
23714;SDS011;12036;50.858;4.472;2023-07-30T00:01:38;9.55;;;2.13;;
23714;SDS011;12036;50.858;4.472;2023-07-30T00:04:03;10.45;;;2.55;;
23714;SDS011;12036;50.858;4.472;2023-07-30T00:06:29;5.35;;;2.20;;
23714;SDS011;12036;50.858;4.472;2023-07-30T00:08:55;7.50;;;2.40;;
23714;SDS011;12036;50.858;4.472;2023-07-30T00:11:20;9.80;;;2.33;;
23714;SDS011;12036;50.858;4.472;2023-07-30T00:13:46;10.07;;;2.50;;
23714;SDS011;12036;50.858;4.472;2023-07-30T00:16:11;10.45;;;2.97;;
23714;SDS011;12036;50.858;4.472;2023-07-30T00:18:37;6.32;;;2.53;;
23714;SDS011;12036;50.858;4.472;2023-07-30T00:21:03;9.30;;;2.28;;
23714;SDS011;12036;50.858;4.472;2023-07-30T00:23:28;11.80;;;2.80;;
23714;SDS011;12036;50.858;4.472;2023-07-30T00:25:54;13.15;;;2.40;;
23714;SDS011;12036;50.858;4.472;2023-07-30T00:28:19;12.32;;;2.30;;
23714;SDS011;12036;50.858;4.472;2023-07-30T00:30:45;14.68;;;2.63;;
23714;SDS011;12036;50.858;4.472;2023-07-30T00:33:11;14.45;;;2.80;;
23714;SDS011;12036;50.858;4.472;2023-07-30T00:35:37;9.52;;;2.20;;
23714;SDS011;12036;50.858;4.472;2023-07-30T00:38:02;11.15;;;2.30;;
23714;SDS011;12036;50.858;4.472;2023-07-30T00:40:28;10.85;;;2.45;;
23714;SDS011;12036;50.858;4.472;2023-07-30T00:42:54;7.70;;;1.90;;
23714;SDS011;12036;50.858;4.472;2023-07-30T00:45:19;12.93;;;2.58;;
23714;SDS011;12036;50.858;4.472;2023-07-30T00:47:46;10.32;;;2.17;;
23714;SDS011;12036;50.858;4.472;2023-07-30T00:50:13;10.80;;;2.50;;
23714;SDS011;12036;50.858;4.472;2023-07-30T00:52:42;9.98;;;2.10;;
23714;SDS011;12036;50.858;4.472;2023-07-30T00:55:08;9.98;;;2.15;;
23714;SDS011;12036;50.858;4.472;2023-07-30T00:57:35;16.45;;;2.60;;
23714;SDS011;12036;50.858;4.472;2023-07-30T01:00:02;9.52;;;2.22;;
23714;SDS011;12036;50.858;4.472;2023-07-30T01:02:31;12.02;;;2.85;;
23714;SDS011;12036;50.858;4.472;2023-07-30T01:04:57;8.20;;;1.90;;
23714;SDS011;12036;50.858;4.472;2023-07-30T01:07:25;9.82;;;2.80;;
23714;SDS011;12036;50.858;4.472;2023-07-30T01:09:50;13.63;;;2.47;;
23714;SDS011;12036;50.858;4.472;2023-07-30T01:12:17;6.15;;;2.25;;
23714;SDS011;12036;50.858;4.472;2023-07-30T01:14:43;14.80;;;2.40;;
23714;SDS011;12036;50.858;4.472;2023-07-30T01:17:11;9.63;;;2.80;;
23714;SDS011;12036;50.858;4.472;2023-07-30T01:19:37;9.45;;;2.30;;
23714;SDS011;12036;50.858;4.472;2023-07-30T01:22:03;7.70;;;2.45;;
23714;SDS011;12036;50.858;4.472;2023-07-30T01:24:28;13.25;;;2.65;;
23714;SDS011;12036;50.858;4.472;2023-07-30T01:27:12;11.45;;;2.50;;
23714;SDS011;12036;50.858;4.472;2023-07-30T01:29:53;10.90;;;2.67;;
23714;SDS011;12036;50.858;4.472;2023-07-30T01:32:28;11.40;;;2.60;;
23714;SDS011;12036;50.858;4.472;2023-07-30T01:34:56;10.68;;;2.35;;
23714;SDS011;12036;50.858;4.472;2023-07-30T01:37:22;9.68;;;2.28;;
23714;SDS011;12036;50.858;4.472;2023-07-30T01:39:49;6.05;;;2.20;;
23714;SDS011;12036;50.858;4.472;2023-07-30T01:42:16;9.63;;;1.90;;
23714;SDS011;12036;50.858;4.472;2023-07-30T01:44:42;12.20;;;2.05;;
23714;SDS011;12036;50.858;4.472;2023-07-30T01:47:07;9.25;;;1.88;;
23714;SDS011;12036;50.858;4.472;2023-07-30T01:49:33;8.50;;;2.20;;
23714;SDS011;12036;50.858;4.472;2023-07-30T01:51:59;10.05;;;2.28;;
23714;SDS011;12036;50.858;4.472;2023-07-30T01:54:25;11.20;;;2.08;;
23714;SDS011;12036;50.858;4.472;2023-07-30T01:56:51;7.68;;;1.90;;
23714;SDS011;12036;50.858;4.472;2023-07-30T01:59:17;14.98;;;2.50;;
23714;SDS011;12036;50.858;4.472;2023-07-30T02:01:43;6.80;;;1.90;;
23714;SDS011;12036;50.858;4.472;2023-07-30T02:04:09;10.27;;;2.25;;
23714;SDS011;12036;50.858;4.472;2023-07-30T02:06:35;7.80;;;2.22;;
23714;SDS011;12036;50.858;4.472;2023-07-30T02:09:00;11.15;;;2.00;;
23714;SDS011;12036;50.858;4.472;2023-07-30T02:11:26;8.93;;;1.73;;
23714;SDS011;12036;50.858;4.472;2023-07-30T02:13:52;7.97;;;1.90;;
23714;SDS011;12036;50.858;4.472;2023-07-30T02:16:17;8.27;;;2.10;;
23714;SDS011;12036;50.858;4.472;2023-07-30T02:18:43;10.00;;;1.83;;
23714;SDS011;12036;50.858;4.472;2023-07-30T02:21:09;8.55;;;2.13;;
23714;SDS011;12036;50.858;4.472;2023-07-30T02:23:35;14.20;;;2.00;;
23714;SDS011;12036;50.858;4.472;2023-07-30T02:26:00;14.93;;;2.47;;
23714;SDS011;12036;50.858;4.472;2023-07-30T02:28:26;7.22;;;2.03;;
23714;SDS011;12036;50.858;4.472;2023-07-30T02:30:52;6.22;;;1.73;;
23714;SDS011;12036;50.858;4.472;2023-07-30T02:33:17;10.52;;;2.00;;
23714;SDS011;12036;50.858;4.472;2023-07-30T02:35:43;10.20;;;2.05;;
23714;SDS011;12036;50.858;4.472;2023-07-30T02:38:09;12.88;;;2.22;;
23714;SDS011;12036;50.858;4.472;2023-07-30T02:40:34;10.77;;;2.08;;
23714;SDS011;12036;50.858;4.472;2023-07-30T02:43:00;10.20;;;2.03;;
23714;SDS011;12036;50.858;4.472;2023-07-30T02:45:26;10.48;;;2.40;;
23714;SDS011;12036;50.858;4.472;2023-07-30T02:47:51;9.77;;;2.03;;
23714;SDS011;12036;50.858;4.472;2023-07-30T02:50:17;8.88;;;2.03;;
23714;SDS011;12036;50.858;4.472;2023-07-30T02:52:43;15.43;;;2.20;;
23714;SDS011;12036;50.858;4.472;2023-07-30T02:55:08;8.45;;;2.25;;
23714;SDS011;12036;50.858;4.472;2023-07-30T02:57:34;11.70;;;1.80;;
23714;SDS011;12036;50.858;4.472;2023-07-30T03:00:00;12.23;;;1.92;;
23714;SDS011;12036;50.858;4.472;2023-07-30T03:02:25;11.82;;;2.25;;
23714;SDS011;12036;50.858;4.472;2023-07-30T03:04:51;10.45;;;2.22;;
23714;SDS011;12036;50.858;4.472;2023-07-30T03:07:17;11.35;;;2.22;;
23714;SDS011;12036;50.858;4.472;2023-07-30T03:09:43;13.05;;;2.10;;
23714;SDS011;12036;50.858;4.472;2023-07-30T03:12:09;12.15;;;2.28;;
23714;SDS011;12036;50.858;4.472;2023-07-30T03:14:35;11.55;;;2.13;;
23714;SDS011;12036;50.858;4.472;2023-07-30T03:17:00;13.65;;;1.80;;
23714;SDS011;12036;50.858;4.472;2023-07-30T03:19:26;12.18;;;1.55;;
23714;SDS011;12036;50.858;4.472;2023-07-30T03:21:52;13.15;;;1.88;;
23714;SDS011;12036;50.858;4.472;2023-07-30T03:24:17;8.20;;;1.92;;
23714;SDS011;12036;50.858;4.472;2023-07-30T03:26:43;12.77;;;1.90;;
23714;SDS011;12036;50.858;4.472;2023-07-30T03:29:08;12.23;;;2.53;;
23714;SDS011;12036;50.858;4.472;2023-07-30T03:31:34;17.65;;;2.13;;
23714;SDS011;12036;50.858;4.472;2023-07-30T03:34:00;15.90;;;1.98;;
23714;SDS011;12036;50.858;4.472;2023-07-30T03:36:26;13.23;;;2.30;;
23714;SDS011;12036;50.858;4.472;2023-07-30T03:38:51;12.23;;;1.90;;
23714;SDS011;12036;50.858;4.472;2023-07-30T03:41:17;15.07;;;1.92;;
23714;SDS011;12036;50.858;4.472;2023-07-30T03:43:42;19.17;;;2.15;;
23714;SDS011;12036;50.858;4.472;2023-07-30T03:46:08;9.77;;;2.10;;
23714;SDS011;12036;50.858;4.472;2023-07-30T03:48:33;11.27;;;2.00;;
23714;SDS011;12036;50.858;4.472;2023-07-30T03:50:59;12.73;;;2.38;;
23714;SDS011;12036;50.858;4.472;2023-07-30T03:53:25;8.10;;;1.73;;
23714;SDS011;12036;50.858;4.472;2023-07-30T03:55:50;12.45;;;2.40;;
23714;SDS011;12036;50.858;4.472;2023-07-30T03:58:16;12.63;;;2.42;;
23714;SDS011;12036;50.858;4.472;2023-07-30T04:00:42;12.43;;;2.03;;
23714;SDS011;12036;50.858;4.472;2023-07-30T04:03:07;10.10;;;1.70;;
23714;SDS011;12036;50.858;4.472;2023-07-30T04:05:33;14.80;;;2.08;;
23714;SDS011;12036;50.858;4.472;2023-07-30T04:07:58;11.75;;;1.75;;
23714;SDS011;12036;50.858;4.472;2023-07-30T04:10:24;13.77;;;2.00;;
23714;SDS011;12036;50.858;4.472;2023-07-30T04:12:50;13.63;;;2.17;;
23714;SDS011;12036;50.858;4.472;2023-07-30T04:15:15;11.43;;;2.88;;
23714;SDS011;12036;50.858;4.472;2023-07-30T04:17:41;11.38;;;3.17;;
23714;SDS011;12036;50.858;4.472;2023-07-30T04:20:07;15.95;;;2.22;;
23714;SDS011;12036;50.858;4.472;2023-07-30T04:22:34;13.82;;;2.63;;
23714;SDS011;12036;50.858;4.472;2023-07-30T04:25:01;9.30;;;1.73;;
23714;SDS011;12036;50.858;4.472;2023-07-30T04:27:26;15.57;;;2.15;;
23714;SDS011;12036;50.858;4.472;2023-07-30T04:29:52;15.82;;;2.40;;
23714;SDS011;12036;50.858;4.472;2023-07-30T04:32:18;13.40;;;1.95;;
23714;SDS011;12036;50.858;4.472;2023-07-30T04:34:43;11.70;;;2.42;;
23714;SDS011;12036;50.858;4.472;2023-07-30T04:37:09;10.20;;;2.13;;
23714;SDS011;12036;50.858;4.472;2023-07-30T04:39:35;15.13;;;1.85;;
23714;SDS011;12036;50.858;4.472;2023-07-30T04:42:01;18.30;;;2.92;;
23714;SDS011;12036;50.858;4.472;2023-07-30T04:44:27;12.25;;;2.00;;
23714;SDS011;12036;50.858;4.472;2023-07-30T04:46:53;16.63;;;2.28;;
23714;SDS011;12036;50.858;4.472;2023-07-30T04:49:18;12.60;;;2.40;;
23714;SDS011;12036;50.858;4.472;2023-07-30T04:51:44;12.65;;;2.25;;
23714;SDS011;12036;50.858;4.472;2023-07-30T04:54:10;16.67;;;2.20;;
23714;SDS011;12036;50.858;4.472;2023-07-30T04:56:36;17.30;;;1.90;;
23714;SDS011;12036;50.858;4.472;2023-07-30T04:59:01;13.10;;;2.17;;
23714;SDS011;12036;50.858;4.472;2023-07-30T05:01:27;12.38;;;2.38;;
23714;SDS011;12036;50.858;4.472;2023-07-30T05:03:53;9.65;;;1.75;;
23714;SDS011;12036;50.858;4.472;2023-07-30T05:06:19;14.23;;;2.15;;
23714;SDS011;12036;50.858;4.472;2023-07-30T05:08:44;10.63;;;1.85;;
23714;SDS011;12036;50.858;4.472;2023-07-30T05:11:10;16.58;;;1.95;;
23714;SDS011;12036;50.858;4.472;2023-07-30T05:13:36;8.07;;;2.20;;
23714;SDS011;12036;50.858;4.472;2023-07-30T05:16:01;12.85;;;1.92;;
23714;SDS011;12036;50.858;4.472;2023-07-30T05:18:27;13.60;;;2.45;;
23714;SDS011;12036;50.858;4.472;2023-07-30T05:20:53;13.52;;;1.95;;
23714;SDS011;12036;50.858;4.472;2023-07-30T05:23:19;9.60;;;2.05;;
23714;SDS011;12036;50.858;4.472;2023-07-30T05:25:45;15.93;;;2.53;;
23714;SDS011;12036;50.858;4.472;2023-07-30T05:28:11;14.90;;;2.35;;
23714;SDS011;12036;50.858;4.472;2023-07-30T05:30:37;14.63;;;2.35;;
23714;SDS011;12036;50.858;4.472;2023-07-30T05:33:03;16.98;;;2.03;;
23714;SDS011;12036;50.858;4.472;2023-07-30T05:35:29;15.52;;;2.03;;
23714;SDS011;12036;50.858;4.472;2023-07-30T05:37:54;15.95;;;2.35;;
23714;SDS011;12036;50.858;4.472;2023-07-30T05:40:20;8.27;;;1.95;;
23714;SDS011;12036;50.858;4.472;2023-07-30T05:42:46;12.45;;;2.08;;
23714;SDS011;12036;50.858;4.472;2023-07-30T05:45:12;12.20;;;2.30;;
23714;SDS011;12036;50.858;4.472;2023-07-30T05:47:38;11.98;;;2.28;;
23714;SDS011;12036;50.858;4.472;2023-07-30T05:50:04;20.83;;;3.03;;
23714;SDS011;12036;50.858;4.472;2023-07-30T05:52:30;17.23;;;2.22;;
23714;SDS011;12036;50.858;4.472;2023-07-30T05:54:56;13.95;;;2.70;;
23714;SDS011;12036;50.858;4.472;2023-07-30T05:57:21;14.65;;;2.45;;
23714;SDS011;12036;50.858;4.472;2023-07-30T05:59:47;15.30;;;2.20;;
23714;SDS011;12036;50.858;4.472;2023-07-30T06:02:12;10.43;;;2.30;;
23714;SDS011;12036;50.858;4.472;2023-07-30T06:04:38;13.82;;;1.90;;
23714;SDS011;12036;50.858;4.472;2023-07-30T06:07:04;17.63;;;2.55;;
23714;SDS011;12036;50.858;4.472;2023-07-30T06:09:30;14.35;;;2.30;;
23714;SDS011;12036;50.858;4.472;2023-07-30T06:11:59;18.60;;;2.17;;
23714;SDS011;12036;50.858;4.472;2023-07-30T06:14:25;11.23;;;1.92;;
23714;SDS011;12036;50.858;4.472;2023-07-30T06:16:51;17.77;;;2.38;;
23714;SDS011;12036;50.858;4.472;2023-07-30T06:19:17;9.18;;;1.92;;
23714;SDS011;12036;50.858;4.472;2023-07-30T06:21:43;10.00;;;2.40;;
23714;SDS011;12036;50.858;4.472;2023-07-30T06:24:08;13.20;;;2.30;;
23714;SDS011;12036;50.858;4.472;2023-07-30T06:26:34;14.85;;;2.55;;
23714;SDS011;12036;50.858;4.472;2023-07-30T06:29:00;9.02;;;2.22;;
23714;SDS011;12036;50.858;4.472;2023-07-30T06:31:25;12.50;;;2.13;;
23714;SDS011;12036;50.858;4.472;2023-07-30T06:33:51;15.32;;;2.15;;
23714;SDS011;12036;50.858;4.472;2023-07-30T06:36:16;11.50;;;2.17;;
23714;SDS011;12036;50.858;4.472;2023-07-30T06:38:42;14.75;;;2.47;;
23714;SDS011;12036;50.858;4.472;2023-07-30T06:41:08;12.93;;;2.38;;
23714;SDS011;12036;50.858;4.472;2023-07-30T06:43:33;15.82;;;2.35;;
23714;SDS011;12036;50.858;4.472;2023-07-30T06:45:59;12.57;;;2.45;;
23714;SDS011;12036;50.858;4.472;2023-07-30T06:48:25;13.27;;;2.15;;
23714;SDS011;12036;50.858;4.472;2023-07-30T06:50:51;15.95;;;2.65;;
23714;SDS011;12036;50.858;4.472;2023-07-30T06:53:16;16.63;;;2.33;;
23714;SDS011;12036;50.858;4.472;2023-07-30T06:55:42;18.40;;;3.47;;
23714;SDS011;12036;50.858;4.472;2023-07-30T06:58:08;15.32;;;2.40;;
23714;SDS011;12036;50.858;4.472;2023-07-30T07:00:34;14.65;;;2.15;;
23714;SDS011;12036;50.858;4.472;2023-07-30T07:02:59;9.00;;;2.45;;
23714;SDS011;12036;50.858;4.472;2023-07-30T07:05:25;10.27;;;2.17;;
23714;SDS011;12036;50.858;4.472;2023-07-30T07:07:51;14.65;;;2.20;;
23714;SDS011;12036;50.858;4.472;2023-07-30T07:10:16;14.55;;;2.60;;
23714;SDS011;12036;50.858;4.472;2023-07-30T07:12:42;14.88;;;2.35;;
23714;SDS011;12036;50.858;4.472;2023-07-30T07:15:08;14.43;;;2.08;;
23714;SDS011;12036;50.858;4.472;2023-07-30T07:17:33;17.48;;;2.35;;
23714;SDS011;12036;50.858;4.472;2023-07-30T07:20:00;14.52;;;2.35;;
23714;SDS011;12036;50.858;4.472;2023-07-30T07:22:25;14.48;;;2.20;;
23714;SDS011;12036;50.858;4.472;2023-07-30T07:24:51;9.63;;;2.00;;
23714;SDS011;12036;50.858;4.472;2023-07-30T07:27:18;14.60;;;2.28;;
23714;SDS011;12036;50.858;4.472;2023-07-30T07:29:44;17.23;;;2.45;;
23714;SDS011;12036;50.858;4.472;2023-07-30T07:32:09;13.35;;;2.58;;
23714;SDS011;12036;50.858;4.472;2023-07-30T07:34:35;7.35;;;2.00;;
23714;SDS011;12036;50.858;4.472;2023-07-30T07:37:01;13.27;;;2.30;;
23714;SDS011;12036;50.858;4.472;2023-07-30T07:39:27;14.93;;;1.90;;
23714;SDS011;12036;50.858;4.472;2023-07-30T07:41:53;11.45;;;3.03;;
23714;SDS011;12036;50.858;4.472;2023-07-30T07:44:18;10.05;;;2.10;;
23714;SDS011;12036;50.858;4.472;2023-07-30T07:46:44;6.65;;;1.77;;
23714;SDS011;12036;50.858;4.472;2023-07-30T07:49:10;16.27;;;2.15;;
23714;SDS011;12036;50.858;4.472;2023-07-30T07:51:35;13.20;;;2.40;;
23714;SDS011;12036;50.858;4.472;2023-07-30T07:54:01;10.68;;;2.35;;
23714;SDS011;12036;50.858;4.472;2023-07-30T07:56:26;8.73;;;1.83;;
23714;SDS011;12036;50.858;4.472;2023-07-30T07:58:52;9.88;;;1.90;;
23714;SDS011;12036;50.858;4.472;2023-07-30T08:01:18;11.35;;;1.90;;
23714;SDS011;12036;50.858;4.472;2023-07-30T08:03:43;8.52;;;2.10;;
23714;SDS011;12036;50.858;4.472;2023-07-30T08:06:09;7.03;;;1.52;;
23714;SDS011;12036;50.858;4.472;2023-07-30T08:08:35;7.70;;;1.50;;
23714;SDS011;12036;50.858;4.472;2023-07-30T08:11:07;8.35;;;1.65;;
23714;SDS011;12036;50.858;4.472;2023-07-30T08:13:33;10.45;;;2.20;;
23714;SDS011;12036;50.858;4.472;2023-07-30T08:16:00;8.13;;;1.90;;
23714;SDS011;12036;50.858;4.472;2023-07-30T08:18:26;11.05;;;1.65;;
23714;SDS011;12036;50.858;4.472;2023-07-30T08:20:52;12.25;;;1.95;;
23714;SDS011;12036;50.858;4.472;2023-07-30T08:23:17;7.22;;;1.58;;
23714;SDS011;12036;50.858;4.472;2023-07-30T08:25:43;12.80;;;1.65;;
23714;SDS011;12036;50.858;4.472;2023-07-30T08:28:09;6.75;;;1.70;;
23714;SDS011;12036;50.858;4.472;2023-07-30T08:30:34;10.07;;;1.42;;
23714;SDS011;12036;50.858;4.472;2023-07-30T08:33:00;11.27;;;2.08;;
23714;SDS011;12036;50.858;4.472;2023-07-30T08:35:25;9.30;;;1.77;;
23714;SDS011;12036;50.858;4.472;2023-07-30T08:37:54;8.82;;;1.80;;
23714;SDS011;12036;50.858;4.472;2023-07-30T08:40:23;7.50;;;1.65;;
23714;SDS011;12036;50.858;4.472;2023-07-30T08:42:53;11.55;;;1.65;;
23714;SDS011;12036;50.858;4.472;2023-07-30T08:45:19;10.75;;;1.73;;
23714;SDS011;12036;50.858;4.472;2023-07-30T08:47:45;8.27;;;1.60;;
23714;SDS011;12036;50.858;4.472;2023-07-30T08:50:11;8.52;;;1.67;;
23714;SDS011;12036;50.858;4.472;2023-07-30T08:52:37;7.88;;;2.28;;
23714;SDS011;12036;50.858;4.472;2023-07-30T08:55:04;7.30;;;1.40;;
23714;SDS011;12036;50.858;4.472;2023-07-30T08:57:30;11.60;;;2.28;;
23714;SDS011;12036;50.858;4.472;2023-07-30T09:00:03;12.35;;;1.95;;
23714;SDS011;12036;50.858;4.472;2023-07-30T09:02:31;12.55;;;1.90;;
23714;SDS011;12036;50.858;4.472;2023-07-30T09:07:27;14.25;;;2.05;;
23714;SDS011;12036;50.858;4.472;2023-07-30T09:09:53;9.20;;;1.88;;
23714;SDS011;12036;50.858;4.472;2023-07-30T09:12:19;12.57;;;1.70;;
23714;SDS011;12036;50.858;4.472;2023-07-30T09:14:46;11.63;;;1.75;;
23714;SDS011;12036;50.858;4.472;2023-07-30T09:17:16;8.38;;;1.70;;
23714;SDS011;12036;50.858;4.472;2023-07-30T09:19:43;11.15;;;1.60;;
23714;SDS011;12036;50.858;4.472;2023-07-30T09:22:09;6.88;;;1.70;;
23714;SDS011;12036;50.858;4.472;2023-07-30T09:24:35;4.88;;;1.50;;
23714;SDS011;12036;50.858;4.472;2023-07-30T09:27:01;6.53;;;1.88;;
23714;SDS011;12036;50.858;4.472;2023-07-30T09:29:28;7.68;;;1.27;;
23714;SDS011;12036;50.858;4.472;2023-07-30T09:31:54;8.05;;;1.48;;
23714;SDS011;12036;50.858;4.472;2023-07-30T09:34:21;11.45;;;1.77;;
23714;SDS011;12036;50.858;4.472;2023-07-30T09:36:50;7.50;;;1.42;;
23714;SDS011;12036;50.858;4.472;2023-07-30T09:39:26;10.10;;;1.95;;
23714;SDS011;12036;50.858;4.472;2023-07-30T09:41:52;7.43;;;1.27;;
23714;SDS011;12036;50.858;4.472;2023-07-30T09:44:24;8.23;;;1.48;;
23714;SDS011;12036;50.858;4.472;2023-07-30T09:46:50;9.73;;;1.70;;
23714;SDS011;12036;50.858;4.472;2023-07-30T09:49:16;6.75;;;1.30;;
23714;SDS011;12036;50.858;4.472;2023-07-30T09:51:43;6.75;;;1.48;;
23714;SDS011;12036;50.858;4.472;2023-07-30T09:54:10;5.15;;;1.30;;
23714;SDS011;12036;50.858;4.472;2023-07-30T09:56:38;7.18;;;1.65;;
23714;SDS011;12036;50.858;4.472;2023-07-30T09:59:05;11.20;;;1.40;;
23714;SDS011;12036;50.858;4.472;2023-07-30T10:01:31;9.07;;;1.88;;
23714;SDS011;12036;50.858;4.472;2023-07-30T10:04:01;9.75;;;2.28;;
23714;SDS011;12036;50.858;4.472;2023-07-30T10:06:32;10.15;;;2.00;;
23714;SDS011;12036;50.858;4.472;2023-07-30T10:09:01;11.35;;;2.03;;
23714;SDS011;12036;50.858;4.472;2023-07-30T10:11:27;11.40;;;2.00;;
23714;SDS011;12036;50.858;4.472;2023-07-30T10:13:53;4.57;;;1.50;;
23714;SDS011;12036;50.858;4.472;2023-07-30T10:16:25;8.05;;;1.60;;
23714;SDS011;12036;50.858;4.472;2023-07-30T10:18:55;6.28;;;1.63;;
23714;SDS011;12036;50.858;4.472;2023-07-30T10:21:23;6.50;;;1.58;;
23714;SDS011;12036;50.858;4.472;2023-07-30T10:23:57;7.18;;;1.92;;
23714;SDS011;12036;50.858;4.472;2023-07-30T10:26:27;8.40;;;1.50;;
23714;SDS011;12036;50.858;4.472;2023-07-30T10:29:12;12.25;;;1.80;;
23714;SDS011;12036;50.858;4.472;2023-07-30T10:31:39;4.95;;;1.20;;
23714;SDS011;12036;50.858;4.472;2023-07-30T10:34:06;7.72;;;1.40;;
23714;SDS011;12036;50.858;4.472;2023-07-30T10:36:37;7.10;;;1.42;;
23714;SDS011;12036;50.858;4.472;2023-07-30T10:41:42;11.65;;;1.73;;
23714;SDS011;12036;50.858;4.472;2023-07-30T10:44:16;7.47;;;1.10;;
23714;SDS011;12036;50.858;4.472;2023-07-30T10:46:44;4.20;;;0.93;;
23714;SDS011;12036;50.858;4.472;2023-07-30T10:49:10;6.93;;;1.13;;
23714;SDS011;12036;50.858;4.472;2023-07-30T10:51:37;7.78;;;1.35;;
23714;SDS011;12036;50.858;4.472;2023-07-30T10:54:05;7.03;;;1.30;;
23714;SDS011;12036;50.858;4.472;2023-07-30T10:56:32;9.65;;;1.60;;
23714;SDS011;12036;50.858;4.472;2023-07-30T10:59:02;7.20;;;1.50;;
23714;SDS011;12036;50.858;4.472;2023-07-30T11:01:39;6.43;;;1.65;;
23714;SDS011;12036;50.858;4.472;2023-07-30T11:04:13;5.82;;;1.27;;
23714;SDS011;12036;50.858;4.472;2023-07-30T11:06:45;4.95;;;1.10;;
23714;SDS011;12036;50.858;4.472;2023-07-30T11:09:19;4.32;;;1.10;;
23714;SDS011;12036;50.858;4.472;2023-07-30T11:11:48;7.30;;;1.10;;
23714;SDS011;12036;50.858;4.472;2023-07-30T11:14:15;3.22;;;1.10;;
23714;SDS011;12036;50.858;4.472;2023-07-30T11:16:56;4.22;;;0.98;;
23714;SDS011;12036;50.858;4.472;2023-07-30T11:19:26;4.10;;;1.38;;
23714;SDS011;12036;50.858;4.472;2023-07-30T11:21:52;10.35;;;1.42;;
23714;SDS011;12036;50.858;4.472;2023-07-30T11:24:21;5.97;;;1.60;;
23714;SDS011;12036;50.858;4.472;2023-07-30T11:26:58;6.10;;;1.40;;
23714;SDS011;12036;50.858;4.472;2023-07-30T11:29:25;6.57;;;1.52;;
23714;SDS011;12036;50.858;4.472;2023-07-30T11:31:51;4.78;;;1.00;;
23714;SDS011;12036;50.858;4.472;2023-07-30T11:34:16;6.88;;;1.00;;
23714;SDS011;12036;50.858;4.472;2023-07-30T11:36:43;5.45;;;1.15;;
23714;SDS011;12036;50.858;4.472;2023-07-30T11:39:09;5.25;;;1.00;;
23714;SDS011;12036;50.858;4.472;2023-07-30T11:41:35;2.53;;;0.77;;
23714;SDS011;12036;50.858;4.472;2023-07-30T11:44:02;5.70;;;1.13;;
23714;SDS011;12036;50.858;4.472;2023-07-30T11:46:28;3.42;;;0.70;;
23714;SDS011;12036;50.858;4.472;2023-07-30T11:49:10;3.78;;;0.88;;
23714;SDS011;12036;50.858;4.472;2023-07-30T11:51:37;6.97;;;0.63;;
23714;SDS011;12036;50.858;4.472;2023-07-30T11:54:03;9.20;;;0.90;;
23714;SDS011;12036;50.858;4.472;2023-07-30T11:56:29;3.40;;;1.10;;
23714;SDS011;12036;50.858;4.472;2023-07-30T12:01:24;3.72;;;0.88;;
23714;SDS011;12036;50.858;4.472;2023-07-30T12:03:54;2.38;;;0.60;;
23714;SDS011;12036;50.858;4.472;2023-07-30T12:06:20;3.53;;;0.70;;
23714;SDS011;12036;50.858;4.472;2023-07-30T12:08:48;6.13;;;1.20;;
23714;SDS011;12036;50.858;4.472;2023-07-30T12:11:14;4.85;;;0.93;;
23714;SDS011;12036;50.858;4.472;2023-07-30T12:13:44;4.55;;;0.82;;
23714;SDS011;12036;50.858;4.472;2023-07-30T12:16:10;3.80;;;0.82;;
23714;SDS011;12036;50.858;4.472;2023-07-30T12:18:37;5.00;;;1.05;;
23714;SDS011;12036;50.858;4.472;2023-07-30T12:21:04;4.50;;;0.90;;
23714;SDS011;12036;50.858;4.472;2023-07-30T12:23:32;4.78;;;0.95;;
23714;SDS011;12036;50.858;4.472;2023-07-30T12:26:02;3.20;;;0.80;;
23714;SDS011;12036;50.858;4.472;2023-07-30T12:28:33;2.85;;;0.80;;
23714;SDS011;12036;50.858;4.472;2023-07-30T12:30:59;7.45;;;0.82;;
23714;SDS011;12036;50.858;4.472;2023-07-30T12:33:26;5.45;;;1.02;;
23714;SDS011;12036;50.858;4.472;2023-07-30T12:35:51;3.42;;;0.90;;
23714;SDS011;12036;50.858;4.472;2023-07-30T12:38:18;4.80;;;1.00;;
23714;SDS011;12036;50.858;4.472;2023-07-30T12:40:43;4.35;;;1.08;;
23714;SDS011;12036;50.858;4.472;2023-07-30T12:43:09;4.63;;;0.90;;
23714;SDS011;12036;50.858;4.472;2023-07-30T12:45:34;5.38;;;0.95;;
23714;SDS011;12036;50.858;4.472;2023-07-30T12:48:00;8.07;;;1.98;;
23714;SDS011;12036;50.858;4.472;2023-07-30T12:50:26;5.75;;;1.20;;
23714;SDS011;12036;50.858;4.472;2023-07-30T12:52:52;4.65;;;0.95;;
23714;SDS011;12036;50.858;4.472;2023-07-30T12:55:18;5.20;;;1.02;;
23714;SDS011;12036;50.858;4.472;2023-07-30T12:57:44;7.50;;;1.00;;
23714;SDS011;12036;50.858;4.472;2023-07-30T13:00:10;3.97;;;0.90;;
23714;SDS011;12036;50.858;4.472;2023-07-30T13:02:36;3.15;;;0.93;;
23714;SDS011;12036;50.858;4.472;2023-07-30T13:05:01;4.40;;;0.95;;
23714;SDS011;12036;50.858;4.472;2023-07-30T13:07:29;5.13;;;0.90;;
23714;SDS011;12036;50.858;4.472;2023-07-30T13:10:04;2.92;;;0.75;;
23714;SDS011;12036;50.858;4.472;2023-07-30T13:12:31;4.25;;;1.02;;
23714;SDS011;12036;50.858;4.472;2023-07-30T13:14:57;3.45;;;0.80;;
23714;SDS011;12036;50.858;4.472;2023-07-30T13:17:23;3.65;;;0.90;;
23714;SDS011;12036;50.858;4.472;2023-07-30T13:19:48;3.10;;;1.00;;
23714;SDS011;12036;50.858;4.472;2023-07-30T13:22:14;4.72;;;1.00;;
23714;SDS011;12036;50.858;4.472;2023-07-30T13:24:40;3.72;;;1.17;;
23714;SDS011;12036;50.858;4.472;2023-07-30T13:27:05;5.20;;;1.10;;
23714;SDS011;12036;50.858;4.472;2023-07-30T13:29:31;3.90;;;1.05;;
23714;SDS011;12036;50.858;4.472;2023-07-30T13:31:57;3.05;;;0.70;;
23714;SDS011;12036;50.858;4.472;2023-07-30T13:34:22;4.13;;;1.13;;
23714;SDS011;12036;50.858;4.472;2023-07-30T13:36:50;6.32;;;1.33;;
23714;SDS011;12036;50.858;4.472;2023-07-30T13:39:15;5.25;;;1.30;;
23714;SDS011;12036;50.858;4.472;2023-07-30T13:41:41;6.10;;;1.30;;
23714;SDS011;12036;50.858;4.472;2023-07-30T13:44:07;4.60;;;1.25;;
23714;SDS011;12036;50.858;4.472;2023-07-30T13:46:33;6.50;;;1.25;;
23714;SDS011;12036;50.858;4.472;2023-07-30T13:48:59;4.25;;;0.90;;
23714;SDS011;12036;50.858;4.472;2023-07-30T13:51:24;5.35;;;1.60;;
23714;SDS011;12036;50.858;4.472;2023-07-30T13:53:51;4.70;;;1.17;;
23714;SDS011;12036;50.858;4.472;2023-07-30T13:56:17;3.15;;;1.13;;
23714;SDS011;12036;50.858;4.472;2023-07-30T13:58:43;3.17;;;1.17;;
23714;SDS011;12036;50.858;4.472;2023-07-30T14:01:08;3.90;;;1.10;;
23714;SDS011;12036;50.858;4.472;2023-07-30T14:03:34;5.55;;;1.08;;
23714;SDS011;12036;50.858;4.472;2023-07-30T14:06:00;5.18;;;1.45;;
23714;SDS011;12036;50.858;4.472;2023-07-30T14:08:26;6.25;;;1.30;;
23714;SDS011;12036;50.858;4.472;2023-07-30T14:10:51;6.25;;;1.38;;
23714;SDS011;12036;50.858;4.472;2023-07-30T14:13:17;6.63;;;1.30;;
23714;SDS011;12036;50.858;4.472;2023-07-30T14:15:43;3.67;;;1.13;;
23714;SDS011;12036;50.858;4.472;2023-07-30T14:18:09;3.38;;;1.15;;
23714;SDS011;12036;50.858;4.472;2023-07-30T14:20:35;7.20;;;1.20;;
23714;SDS011;12036;50.858;4.472;2023-07-30T14:23:02;5.22;;;1.10;;
23714;SDS011;12036;50.858;4.472;2023-07-30T14:25:29;6.70;;;1.30;;
23714;SDS011;12036;50.858;4.472;2023-07-30T14:27:55;3.38;;;1.20;;
23714;SDS011;12036;50.858;4.472;2023-07-30T14:30:20;7.05;;;1.20;;
23714;SDS011;12036;50.858;4.472;2023-07-30T14:32:46;5.00;;;1.10;;
23714;SDS011;12036;50.858;4.472;2023-07-30T14:35:12;5.13;;;1.10;;
23714;SDS011;12036;50.858;4.472;2023-07-30T14:37:37;3.75;;;1.05;;
23714;SDS011;12036;50.858;4.472;2023-07-30T14:40:03;8.32;;;1.45;;
23714;SDS011;12036;50.858;4.472;2023-07-30T14:42:29;6.93;;;1.60;;
23714;SDS011;12036;50.858;4.472;2023-07-30T14:44:55;5.38;;;1.25;;